Deodapolis, Brazil
Current Conditions -  °F | °C
As of 11:00 AM on Thursday 30 Oct 2014 (Local Time) from SBCG Reporting Station
Broken Clouds Broken Clouds  
Wind Chill: 86°   Ceiling: 3400
Heat Index: 88°   Visibility: 6mi
Dew Point: 66°   Wind: 17mph
Humidity: 51%   Direction: 330°NNW
Pressure: 29.88"   Gusts: NA
Location:  22.28°S, 54.16°W
Report Text: SBCG 301400Z 33015KT 9999 BKN034 30/19 Q1012
Loading
Personal Weather Stations






























Interactive Weather Map
Tropical Storm Tracking
New forecast layout! Learn more

10-Day Weather Forecast

Advertisements
Track Severe Weather on mobile